createdAt,value
2022-09-24T00:02:18.994Z,15.40
2022-09-24T00:04:45.952Z,15.40
2022-09-24T00:07:12.836Z,15.30
2022-09-24T00:09:39.890Z,15.30
2022-09-24T00:12:06.790Z,15.30
2022-09-24T00:14:33.672Z,15.30
2022-09-24T00:17:00.527Z,15.30
2022-09-24T00:19:27.535Z,15.30
2022-09-24T00:21:54.418Z,15.40
2022-09-24T00:24:39.621Z,15.40
2022-09-24T00:27:06.924Z,15.40
2022-09-24T00:29:35.635Z,15.40
2022-09-24T00:32:03.692Z,15.40
2022-09-24T00:34:30.611Z,15.40
2022-09-24T00:36:57.487Z,15.40
2022-09-24T00:39:24.681Z,15.40
2022-09-24T00:41:51.587Z,15.30
2022-09-24T00:44:36.552Z,15.40
2022-09-24T00:47:03.494Z,15.40
2022-09-24T00:49:30.327Z,15.40
2022-09-24T00:51:57.493Z,15.30
2022-09-24T00:54:26.919Z,15.40
2022-09-24T00:56:54.419Z,15.30
2022-09-24T00:59:24.039Z,15.30
2022-09-24T01:01:51.706Z,15.30
2022-09-24T01:04:21.361Z,15.30
2022-09-24T01:06:48.956Z,15.30
2022-09-24T01:09:16.425Z,15.30
2022-09-24T01:11:55.372Z,15.40
2022-09-24T01:14:27.147Z,15.40
2022-09-24T01:16:57.290Z,15.30
2022-09-24T01:19:30.330Z,15.40
2022-09-24T01:21:58.878Z,15.40
2022-09-24T01:24:44.400Z,15.40
2022-09-24T01:27:22.262Z,15.40
2022-09-24T01:29:50.224Z,15.40
2022-09-24T01:32:37.419Z,15.40
2022-09-24T01:35:19.235Z,15.40
2022-09-24T01:37:49.333Z,15.40
2022-09-24T01:40:18.402Z,15.40
2022-09-24T01:42:46.387Z,15.40
2022-09-24T01:45:14.192Z,15.40
2022-09-24T01:47:41.750Z,15.40
2022-09-24T01:50:10.119Z,15.40
2022-09-24T01:52:41.917Z,15.40
2022-09-24T01:55:10.466Z,15.40
2022-09-24T01:57:41.604Z,15.40
2022-09-24T02:00:12.169Z,15.40
2022-09-24T02:02:44.213Z,15.40
2022-09-24T02:05:15.132Z,15.40
2022-09-24T02:07:51.237Z,15.40
2022-09-24T02:10:19.408Z,15.40
2022-09-24T02:12:52.829Z,15.40
2022-09-24T02:15:32.071Z,15.40
2022-09-24T02:18:03.708Z,15.40
2022-09-24T02:20:31.420Z,15.30
2022-09-24T02:22:58.288Z,15.40
2022-09-24T02:25:28.820Z,15.40
2022-09-24T02:27:56.408Z,15.40
2022-09-24T02:30:23.280Z,15.30
2022-09-24T02:32:50.964Z,15.30
2022-09-24T02:35:18.138Z,15.40
2022-09-24T02:37:45.074Z,15.40
2022-09-24T02:40:13.347Z,15.40
2022-09-24T02:42:42.456Z,15.40
2022-09-24T02:45:09.968Z,15.40
2022-09-24T02:47:37.283Z,15.40
2022-09-24T02:50:04.674Z,15.40
2022-09-24T02:52:31.515Z,15.40
2022-09-24T02:54:58.442Z,15.40
2022-09-24T02:57:25.309Z,15.40
2022-09-24T02:59:52.144Z,15.40
2022-09-24T03:02:19.164Z,15.40
2022-09-24T03:04:47.267Z,15.40
2022-09-24T03:07:14.931Z,15.30
2022-09-24T03:09:41.830Z,15.30
2022-09-24T03:12:08.990Z,15.30
2022-09-24T03:14:35.904Z,15.30
2022-09-24T03:17:02.700Z,15.30
2022-09-24T03:19:29.546Z,15.30
2022-09-24T03:21:56.493Z,15.30
2022-09-24T03:24:23.376Z,15.30
2022-09-24T03:26:50.439Z,15.30
2022-09-24T03:29:17.287Z,15.20
2022-09-24T03:31:44.132Z,15.30
2022-09-24T03:34:11.065Z,15.30
2022-09-24T03:36:38.055Z,15.30
2022-09-24T03:39:04.989Z,15.20
2022-09-24T03:41:31.786Z,15.20
2022-09-24T03:43:58.608Z,15.20
2022-09-24T03:46:28.651Z,15.20
2022-09-24T03:48:56.350Z,15.30
2022-09-24T03:51:23.262Z,15.30
2022-09-24T03:53:50.124Z,15.20
2022-09-24T03:56:17.181Z,15.20
2022-09-24T03:58:47.671Z,15.20
2022-09-24T04:01:21.733Z,15.20
2022-09-24T04:03:49.614Z,15.20
2022-09-24T04:06:18.742Z,15.20
2022-09-24T04:08:49.022Z,15.20
2022-09-24T04:11:15.953Z,15.20
2022-09-24T04:13:42.776Z,15.20
2022-09-24T04:16:09.729Z,15.20
2022-09-24T04:18:39.277Z,15.20
2022-09-24T04:21:06.758Z,15.20
2022-09-24T04:23:33.672Z,15.20
2022-09-24T04:26:02.540Z,15.20
2022-09-24T04:28:30.275Z,15.10
2022-09-24T04:30:57.487Z,15.10
2022-09-24T04:33:24.514Z,15.10
2022-09-24T04:35:51.322Z,15.10
2022-09-24T04:38:19.838Z,15.10
2022-09-24T04:40:47.498Z,15.10
2022-09-24T04:43:14.463Z,15.10
2022-09-24T04:45:43.396Z,15.10
2022-09-24T04:48:10.273Z,15.10
2022-09-24T04:50:42.050Z,15.10
2022-09-24T04:53:12.658Z,15.10
2022-09-24T04:55:39.874Z,15.10
2022-09-24T04:58:06.818Z,15.10
2022-09-24T05:00:33.694Z,15.10
2022-09-24T05:03:03.785Z,15.20
2022-09-24T05:05:32.363Z,15.10
2022-09-24T05:07:59.336Z,15.10
2022-09-24T05:10:26.622Z,15.10
2022-09-24T05:12:53.460Z,15.20
2022-09-24T05:15:20.859Z,15.20
2022-09-24T05:17:48.117Z,15.20
2022-09-24T05:20:17.053Z,15.20
2022-09-24T05:22:44.661Z,15.10
2022-09-24T05:25:12.760Z,15.10
2022-09-24T05:27:52.779Z,15.10
2022-09-24T05:30:21.086Z,15.10
2022-09-24T05:32:54.140Z,15.10
2022-09-24T05:35:21.714Z,15.10
2022-09-24T05:37:49.807Z,15.10
2022-09-24T05:40:35.028Z,15.10
2022-09-24T05:43:02.402Z,15.10
2022-09-24T05:45:30.057Z,15.10
2022-09-24T05:47:57.106Z,15.10
2022-09-24T05:52:52.635Z,15.10
2022-09-24T05:55:19.785Z,15.10
2022-09-24T05:57:50.714Z,15.10
2022-09-24T06:00:17.665Z,15.10
2022-09-24T06:02:44.553Z,15.10
2022-09-24T06:05:11.698Z,15.10
2022-09-24T06:07:38.717Z,15.00
2022-09-24T06:10:07.463Z,15.00
2022-09-24T06:12:37.034Z,15.10
2022-09-24T06:15:04.421Z,15.00
2022-09-24T06:17:32.631Z,15.00
2022-09-24T06:19:59.673Z,15.00
2022-09-24T06:22:28.857Z,15.00
2022-09-24T06:24:56.059Z,15.00
2022-09-24T06:27:22.959Z,15.10
2022-09-24T06:29:49.813Z,15.00
2022-09-24T06:32:16.658Z,15.00
2022-09-24T06:34:43.468Z,15.10
2022-09-24T06:37:10.280Z,15.10
2022-09-24T06:39:40.136Z,15.10
2022-09-24T06:42:07.337Z,15.10
2022-09-24T06:44:35.148Z,15.10
2022-09-24T06:47:02.079Z,15.10
2022-09-24T06:49:33.729Z,15.20
2022-09-24T06:52:01.245Z,15.20
2022-09-24T06:54:28.265Z,15.20
2022-09-24T06:56:55.104Z,15.20
2022-09-24T06:59:22.308Z,15.20
2022-09-24T07:01:49.266Z,15.30
2022-09-24T07:04:16.242Z,15.30
2022-09-24T07:07:01.495Z,15.30
2022-09-24T07:09:28.357Z,15.20
2022-09-24T07:11:57.083Z,15.30
2022-09-24T07:14:23.891Z,15.30
2022-09-24T07:16:50.721Z,15.30
2022-09-24T07:19:17.556Z,15.20
2022-09-24T07:21:44.395Z,15.20
2022-09-24T07:24:11.239Z,15.20
2022-09-24T07:26:38.082Z,15.20
2022-09-24T07:29:05.012Z,15.20
2022-09-24T07:31:31.984Z,15.20
2022-09-24T07:33:58.906Z,15.20
2022-09-24T07:36:25.726Z,15.20
2022-09-24T07:38:52.614Z,15.20
2022-09-24T07:41:20.508Z,15.20
2022-09-24T07:43:47.502Z,15.20
2022-09-24T07:46:14.488Z,15.20
2022-09-24T07:48:41.344Z,15.20
2022-09-24T07:51:11.712Z,15.20
2022-09-24T07:53:38.584Z,15.20
2022-09-24T07:56:06.084Z,15.20
2022-09-24T07:58:33.199Z,15.20
2022-09-24T08:01:00.717Z,15.20
2022-09-24T08:03:27.931Z,15.20
2022-09-24T08:06:00.039Z,15.20
2022-09-24T08:08:26.910Z,15.20
2022-09-24T08:10:53.980Z,15.20
2022-09-24T08:13:26.706Z,15.20
2022-09-24T08:16:00.729Z,15.20
2022-09-24T08:18:28.338Z,15.30
2022-09-24T08:20:55.374Z,15.30
2022-09-24T08:23:22.278Z,15.30
2022-09-24T08:25:49.254Z,15.30
2022-09-24T08:28:19.995Z,15.30
2022-09-24T08:30:47.060Z,15.30
2022-09-24T08:33:14.042Z,15.30
2022-09-24T08:35:40.917Z,15.30
2022-09-24T08:38:08.364Z,15.40
2022-09-24T08:40:39.839Z,15.40
2022-09-24T08:43:23.244Z,15.40
2022-09-24T08:46:12.315Z,15.40
2022-09-24T08:48:40.212Z,15.40
2022-09-24T08:51:08.685Z,15.40
2022-09-24T08:53:44.843Z,15.50
2022-09-24T08:56:11.877Z,15.50
2022-09-24T08:58:44.114Z,15.60
2022-09-24T09:01:11.373Z,15.60
2022-09-24T09:03:56.678Z,15.60
2022-09-24T09:06:42.307Z,15.60
2022-09-24T09:09:09.761Z,15.60
2022-09-24T09:11:38.172Z,15.70
2022-09-24T09:14:10.134Z,15.70
2022-09-24T09:16:43.007Z,15.70
2022-09-24T09:19:12.936Z,15.70
2022-09-24T09:21:43.769Z,15.80
2022-09-24T09:24:17.691Z,15.80
2022-09-24T09:26:49.615Z,15.80
2022-09-24T09:29:16.955Z,15.80
2022-09-24T09:31:44.436Z,15.80
2022-09-24T09:34:11.392Z,15.80
2022-09-24T09:36:53.596Z,15.80
2022-09-24T09:39:20.361Z,15.80
2022-09-24T09:41:53.009Z,15.80
2022-09-24T09:44:26.931Z,15.80
2022-09-24T09:46:57.893Z,15.80
2022-09-24T09:49:26.066Z,15.80
2022-09-24T09:51:55.092Z,15.80
2022-09-24T09:54:21.929Z,15.80
2022-09-24T09:56:49.927Z,15.80
2022-09-24T09:59:19.236Z,15.80
2022-09-24T10:01:47.640Z,15.80
2022-09-24T10:04:40.930Z,15.80
2022-09-24T10:07:11.844Z,15.80
2022-09-24T10:09:39.461Z,15.80
2022-09-24T10:12:07.223Z,15.80
2022-09-24T10:14:34.086Z,15.80
2022-09-24T10:17:05.984Z,15.80
2022-09-24T10:19:35.374Z,15.90
2022-09-24T10:22:16.589Z,15.90
2022-09-24T10:24:44.025Z,15.90
2022-09-24T10:27:12.432Z,15.90
2022-09-24T10:29:57.791Z,15.90
2022-09-24T10:32:25.890Z,15.90
2022-09-24T10:34:57.047Z,15.90
2022-09-24T10:37:24.226Z,15.90
2022-09-24T10:40:00.913Z,16.00
2022-09-24T10:42:29.449Z,15.90
2022-09-24T10:44:58.944Z,15.90
2022-09-24T10:47:27.219Z,16.00
2022-09-24T10:50:00.982Z,15.90
2022-09-24T10:52:39.616Z,15.90
2022-09-24T10:55:25.373Z,15.90
2022-09-24T10:57:58.600Z,15.90
2022-09-24T11:00:29.947Z,15.90
2022-09-24T11:02:59.951Z,15.90
2022-09-24T11:05:56.265Z,15.90
2022-09-24T11:08:34.742Z,16.00
2022-09-24T11:11:10.973Z,16.00
2022-09-24T11:13:46.825Z,16.00
2022-09-24T11:16:28.223Z,15.90
2022-09-24T11:19:09.976Z,15.90
2022-09-24T11:21:48.969Z,15.90
2022-09-24T11:24:22.596Z,15.90
2022-09-24T11:27:01.827Z,15.90
2022-09-24T11:29:36.854Z,15.90
2022-09-24T11:32:16.503Z,15.90
2022-09-24T11:34:52.592Z,15.90
2022-09-24T11:37:39.277Z,15.90
2022-09-24T11:40:26.432Z,15.90
2022-09-24T11:42:59.169Z,15.90
2022-09-24T11:45:37.212Z,15.90
2022-09-24T11:48:04.254Z,15.90
2022-09-24T11:50:34.065Z,15.90
2022-09-24T11:53:03.761Z,15.90
2022-09-24T11:55:56.633Z,15.90
2022-09-24T11:58:49.864Z,15.90
2022-09-24T12:01:21.274Z,15.90
2022-09-24T12:04:00.424Z,15.80
2022-09-24T12:06:30.624Z,15.90
2022-09-24T12:09:04.144Z,15.90
2022-09-24T12:11:37.031Z,15.90
2022-09-24T12:14:09.603Z,15.80
2022-09-24T12:16:40.188Z,15.80
2022-09-24T12:19:09.948Z,15.80
2022-09-24T12:21:41.787Z,15.80
2022-09-24T12:24:27.142Z,15.80
2022-09-24T12:26:57.916Z,15.80
2022-09-24T12:29:49.737Z,15.70
2022-09-24T12:32:47.619Z,15.60
2022-09-24T12:35:33.214Z,15.70
2022-09-24T12:38:13.554Z,15.70
2022-09-24T12:40:47.027Z,15.70
2022-09-24T12:43:19.532Z,15.60
2022-09-24T12:45:47.393Z,15.60
2022-09-24T12:48:15.797Z,15.60
2022-09-24T12:50:46.120Z,15.70
2022-09-24T12:53:24.748Z,15.60
2022-09-24T12:55:52.757Z,15.60
2022-09-24T12:58:30.571Z,15.60
2022-09-24T13:01:17.153Z,15.60
2022-09-24T13:03:47.181Z,15.60
2022-09-24T13:06:37.480Z,15.60
2022-09-24T13:09:25.827Z,15.70
2022-09-24T13:12:02.945Z,15.70
2022-09-24T13:14:31.110Z,15.70
2022-09-24T13:16:58.179Z,15.70
2022-09-24T13:19:27.987Z,15.80
2022-09-24T13:21:56.345Z,15.80
2022-09-24T13:24:27.264Z,15.70
2022-09-24T13:26:54.089Z,15.70
2022-09-24T13:29:25.676Z,15.70
2022-09-24T13:31:59.993Z,15.80
2022-09-24T13:34:27.749Z,15.70
2022-09-24T13:36:59.863Z,15.60
2022-09-24T13:39:29.863Z,15.60
2022-09-24T13:42:04.259Z,15.60
2022-09-24T13:44:31.503Z,15.60
2022-09-24T13:47:13.532Z,15.60
2022-09-24T13:49:47.184Z,15.60
2022-09-24T13:52:18.114Z,15.60
2022-09-24T13:54:49.522Z,15.60
2022-09-24T13:57:22.376Z,15.70
2022-09-24T13:59:49.305Z,15.60
2022-09-24T14:02:24.355Z,15.60
2022-09-24T14:04:55.880Z,15.60
2022-09-24T14:07:23.820Z,15.60
2022-09-24T14:09:51.608Z,15.60
2022-09-24T14:12:22.167Z,15.60
2022-09-24T14:14:57.689Z,15.60
2022-09-24T14:17:25.140Z,15.60
2022-09-24T14:19:55.899Z,15.60
2022-09-24T14:22:40.859Z,15.60
2022-09-24T14:25:15.648Z,15.60
2022-09-24T14:27:44.479Z,15.60
2022-09-24T14:30:19.104Z,15.70
2022-09-24T14:32:50.683Z,15.70
2022-09-24T14:35:27.810Z,15.70
2022-09-24T14:38:06.358Z,15.70
2022-09-24T14:40:40.279Z,15.70
2022-09-24T14:43:14.449Z,15.70
2022-09-24T14:45:41.403Z,15.70
2022-09-24T14:48:19.015Z,15.80
2022-09-24T14:50:46.094Z,15.70
2022-09-24T14:53:13.008Z,15.80
2022-09-24T14:55:41.425Z,15.70
2022-09-24T14:58:22.970Z,15.70
2022-09-24T15:00:51.498Z,15.70
2022-09-24T15:03:20.823Z,15.70
2022-09-24T15:05:47.858Z,15.80
2022-09-24T15:08:24.342Z,15.70
2022-09-24T15:10:54.281Z,15.70
2022-09-24T15:13:31.649Z,15.70
2022-09-24T15:16:03.318Z,15.70
2022-09-24T15:18:30.279Z,15.80
2022-09-24T15:21:00.699Z,15.80
2022-09-24T15:23:27.682Z,15.80
2022-09-24T15:25:54.685Z,15.80
2022-09-24T15:28:22.942Z,15.80
2022-09-24T15:30:49.806Z,15.80
2022-09-24T15:33:17.742Z,15.80
2022-09-24T15:35:47.794Z,15.80
2022-09-24T15:38:18.903Z,15.80
2022-09-24T15:40:45.899Z,15.80
2022-09-24T15:43:23.036Z,15.80
2022-09-24T15:45:50.296Z,15.80
2022-09-24T15:48:17.265Z,15.80
2022-09-24T15:50:45.540Z,15.80
2022-09-24T15:53:20.772Z,15.80
2022-09-24T15:55:49.707Z,15.80
2022-09-24T15:58:19.640Z,15.80
2022-09-24T16:00:46.700Z,15.80
2022-09-24T16:03:18.851Z,15.80
2022-09-24T16:05:46.607Z,15.80
2022-09-24T16:08:13.489Z,15.80
2022-09-24T16:10:40.729Z,15.80
2022-09-24T16:13:08.310Z,15.90
2022-09-24T16:15:35.663Z,15.90
2022-09-24T16:18:02.628Z,16.00
2022-09-24T16:20:29.757Z,16.00
2022-09-24T16:22:56.640Z,16.00
2022-09-24T16:25:23.822Z,16.00
2022-09-24T16:27:51.145Z,16.00
2022-09-24T16:30:18.124Z,16.00
2022-09-24T16:32:45.094Z,16.00
2022-09-24T16:35:13.477Z,16.00
2022-09-24T16:37:40.583Z,16.00
2022-09-24T16:40:08.011Z,15.90
2022-09-24T16:42:35.193Z,15.80
2022-09-24T16:45:02.359Z,15.80
2022-09-24T16:47:29.386Z,15.70
2022-09-24T16:49:56.253Z,15.70
2022-09-24T16:52:23.396Z,15.70
2022-09-24T16:54:50.219Z,15.60
2022-09-24T16:57:17.211Z,15.50
2022-09-24T16:59:44.037Z,15.40
2022-09-24T17:02:12.585Z,15.30
2022-09-24T17:04:39.883Z,15.30
2022-09-24T17:07:06.938Z,15.30
2022-09-24T17:09:52.599Z,15.30
2022-09-24T17:12:19.606Z,15.20
2022-09-24T17:14:46.493Z,15.20
2022-09-24T17:17:15.861Z,15.20
2022-09-24T17:19:42.957Z,15.30
2022-09-24T17:22:09.749Z,15.30
2022-09-24T17:24:40.120Z,15.40
2022-09-24T17:27:07.930Z,15.40
2022-09-24T17:29:34.818Z,15.40
2022-09-24T17:32:01.753Z,15.30
2022-09-24T17:34:28.690Z,15.30
2022-09-24T17:36:55.526Z,15.30
2022-09-24T17:39:22.557Z,15.30
2022-09-24T17:41:49.408Z,15.20
2022-09-24T17:44:18.084Z,15.10
2022-09-24T17:46:45.155Z,15.00
2022-09-24T17:49:12.283Z,15.00
2022-09-24T17:51:39.653Z,15.00
2022-09-24T17:54:11.804Z,14.90
2022-09-24T17:56:39.211Z,14.80
2022-09-24T17:59:10.307Z,14.80
2022-09-24T18:01:37.844Z,14.70
2022-09-24T18:04:08.977Z,14.70
2022-09-24T18:06:37.049Z,14.70
2022-09-24T18:09:04.754Z,14.70
2022-09-24T18:11:33.110Z,14.70
2022-09-24T18:14:01.226Z,14.70
2022-09-24T18:16:29.506Z,14.80
2022-09-24T18:18:57.362Z,14.80
2022-09-24T18:21:24.593Z,14.80
2022-09-24T18:23:54.945Z,14.80
2022-09-24T18:26:23.155Z,14.70
2022-09-24T18:28:54.366Z,14.70
2022-09-24T18:31:22.133Z,14.60
2022-09-24T18:33:50.351Z,14.60
2022-09-24T18:36:18.842Z,14.60
2022-09-24T18:38:46.212Z,14.60
2022-09-24T18:41:20.305Z,14.60
2022-09-24T18:43:47.425Z,14.50
2022-09-24T18:46:15.438Z,14.50
2022-09-24T18:48:43.846Z,14.40
2022-09-24T18:51:24.312Z,14.40
2022-09-24T18:53:55.061Z,14.40
2022-09-24T18:56:22.496Z,14.40
2022-09-24T18:58:49.504Z,14.50
2022-09-24T19:01:16.727Z,14.40
2022-09-24T19:03:43.910Z,14.40
2022-09-24T19:06:13.008Z,14.40
2022-09-24T19:08:39.925Z,14.40
2022-09-24T19:11:11.210Z,14.50
2022-09-24T19:13:38.797Z,14.40
2022-09-24T19:16:13.839Z,14.40
2022-09-24T19:18:41.580Z,14.40
2022-09-24T19:21:09.675Z,14.40
2022-09-24T19:23:40.538Z,14.50
2022-09-24T19:26:07.959Z,14.50
2022-09-24T19:28:35.319Z,14.50
2022-09-24T19:31:04.078Z,14.50
2022-09-24T19:33:30.959Z,14.60
2022-09-24T19:35:59.465Z,14.60
2022-09-24T19:38:27.973Z,14.70
2022-09-24T19:41:13.679Z,14.70
2022-09-24T19:43:42.899Z,14.70
2022-09-24T19:46:11.064Z,14.70
2022-09-24T19:48:39.480Z,14.80
2022-09-24T19:51:20.585Z,14.70
2022-09-24T19:53:48.352Z,14.70
2022-09-24T19:56:16.554Z,14.80
2022-09-24T19:58:52.769Z,14.70
2022-09-24T20:01:20.386Z,14.70
2022-09-24T20:03:47.455Z,14.60
2022-09-24T20:06:15.290Z,14.60
2022-09-24T20:08:42.305Z,14.50
2022-09-24T20:11:15.184Z,14.60
2022-09-24T20:13:46.410Z,14.60
2022-09-24T20:16:19.546Z,14.60
2022-09-24T20:18:47.590Z,14.70
2022-09-24T20:21:16.405Z,14.60
2022-09-24T20:23:43.438Z,14.60
2022-09-24T20:26:29.491Z,14.60
2022-09-24T20:28:56.776Z,14.60
2022-09-24T20:31:24.038Z,14.60
2022-09-24T20:33:51.001Z,14.60
2022-09-24T20:36:23.263Z,14.70
2022-09-24T20:38:51.260Z,14.70
2022-09-24T20:41:19.429Z,14.80
2022-09-24T20:43:46.665Z,14.80
2022-09-24T20:46:24.346Z,14.80
2022-09-24T20:48:51.656Z,14.80
2022-09-24T20:51:19.987Z,14.80
2022-09-24T20:53:47.928Z,14.80
2022-09-24T20:56:15.098Z,14.80
2022-09-24T20:58:42.352Z,14.80
2022-09-24T21:01:09.792Z,14.80
2022-09-24T21:03:44.525Z,14.80
2022-09-24T21:06:12.484Z,14.80
2022-09-24T21:08:41.022Z,14.80
2022-09-24T21:11:09.145Z,14.80
2022-09-24T21:13:40.022Z,14.80
2022-09-24T21:16:07.120Z,14.80
2022-09-24T21:18:39.800Z,14.80
2022-09-24T21:21:08.141Z,14.80
2022-09-24T21:23:36.364Z,14.70
2022-09-24T21:26:10.076Z,14.70
2022-09-24T21:28:37.789Z,14.70
2022-09-24T21:31:05.550Z,14.70
2022-09-24T21:33:33.251Z,14.70
2022-09-24T21:36:00.930Z,14.70
2022-09-24T21:38:27.927Z,14.70
2022-09-24T21:40:55.261Z,14.70
2022-09-24T21:43:29.748Z,14.70
2022-09-24T21:46:01.974Z,14.70
2022-09-24T21:48:29.835Z,14.70
2022-09-24T21:51:04.097Z,14.70
2022-09-24T21:53:32.030Z,14.70
2022-09-24T21:55:58.944Z,14.70
2022-09-24T21:58:26.014Z,14.60
2022-09-24T22:00:52.937Z,14.60
2022-09-24T22:03:21.204Z,14.50
2022-09-24T22:05:48.507Z,14.50
2022-09-24T22:08:15.625Z,14.50
2022-09-24T22:10:44.239Z,14.50
2022-09-24T22:13:15.143Z,14.40
2022-09-24T22:15:45.092Z,14.40
2022-09-24T22:18:12.033Z,14.30
2022-09-24T22:20:43.142Z,14.20
2022-09-24T22:23:10.603Z,14.20
2022-09-24T22:25:38.126Z,14.10
2022-09-24T22:28:05.380Z,14.10
2022-09-24T22:30:32.381Z,14.10
2022-09-24T22:32:59.290Z,14.00
2022-09-24T22:35:44.851Z,14.00
2022-09-24T22:38:12.004Z,14.10
2022-09-24T22:40:38.970Z,14.20
2022-09-24T22:43:05.943Z,14.20
2022-09-24T22:45:32.780Z,14.20
2022-09-24T22:47:59.734Z,14.20
2022-09-24T22:50:26.574Z,14.30
2022-09-24T22:52:53.440Z,14.20
2022-09-24T22:55:20.268Z,14.20
2022-09-24T22:57:47.199Z,14.10
2022-09-24T23:00:15.334Z,14.10
2022-09-24T23:02:42.288Z,14.10
2022-09-24T23:05:10.083Z,14.00
2022-09-24T23:07:37.032Z,14.00
2022-09-24T23:10:03.934Z,14.00
2022-09-24T23:12:34.375Z,13.90
2022-09-24T23:15:01.356Z,13.80
2022-09-24T23:17:28.282Z,13.70
2022-09-24T23:19:55.265Z,13.70
2022-09-24T23:22:22.828Z,13.60
2022-09-24T23:24:50.856Z,13.60
2022-09-24T23:27:18.993Z,13.50
2022-09-24T23:29:48.852Z,13.50
2022-09-24T23:32:16.113Z,13.50
2022-09-24T23:34:43.146Z,13.50
2022-09-24T23:37:11.055Z,13.40
2022-09-24T23:39:38.585Z,13.50
2022-09-24T23:42:06.377Z,13.50
2022-09-24T23:44:33.893Z,13.50
2022-09-24T23:47:01.137Z,13.50
2022-09-24T23:49:28.185Z,13.50
2022-09-24T23:51:55.130Z,13.50
2022-09-24T23:54:22.068Z,13.50
2022-09-24T23:56:48.887Z,13.50
2022-09-24T23:59:15.846Z,13.50
